sensor_id;sensor_type;location;lat;lon;timestamp;temperature;humidity
54614;DHT22;40514;52.758;6.360;2022-08-05T00:00:59;20.60;99.90
54614;DHT22;40514;52.758;6.360;2022-08-05T00:03:25;20.60;99.90
54614;DHT22;40514;52.758;6.360;2022-08-05T00:05:50;20.60;99.90
54614;DHT22;40514;52.758;6.360;2022-08-05T00:08:16;20.60;99.90
54614;DHT22;40514;52.758;6.360;2022-08-05T00:10:41;20.50;99.90
54614;DHT22;40514;52.758;6.360;2022-08-05T00:13:07;20.50;99.90
54614;DHT22;40514;52.758;6.360;2022-08-05T00:15:32;20.50;99.90
54614;DHT22;40514;52.758;6.360;2022-08-05T00:17:58;20.50;99.90
54614;DHT22;40514;52.758;6.360;2022-08-05T00:20:23;20.50;99.90
54614;DHT22;40514;52.758;6.360;2022-08-05T00:22:49;20.50;99.90
54614;DHT22;40514;52.758;6.360;2022-08-05T00:25:14;20.50;99.90
54614;DHT22;40514;52.758;6.360;2022-08-05T00:27:39;20.40;99.90
54614;DHT22;40514;52.758;6.360;2022-08-05T00:30:05;20.40;99.90
54614;DHT22;40514;52.758;6.360;2022-08-05T00:32:31;20.50;99.90
54614;DHT22;40514;52.758;6.360;2022-08-05T00:34:56;20.40;99.90
54614;DHT22;40514;52.758;6.360;2022-08-05T00:37:22;20.50;99.90
54614;DHT22;40514;52.758;6.360;2022-08-05T00:39:47;20.50;99.90
54614;DHT22;40514;52.758;6.360;2022-08-05T00:42:13;20.40;99.90
54614;DHT22;40514;52.758;6.360;2022-08-05T00:44:41;20.40;99.90
54614;DHT22;40514;52.758;6.360;2022-08-05T00:47:06;20.30;99.90
54614;DHT22;40514;52.758;6.360;2022-08-05T00:49:32;20.40;99.90
54614;DHT22;40514;52.758;6.360;2022-08-05T00:51:57;20.40;99.90
54614;DHT22;40514;52.758;6.360;2022-08-05T00:54:23;20.40;99.90
54614;DHT22;40514;52.758;6.360;2022-08-05T00:56:49;20.30;99.90
54614;DHT22;40514;52.758;6.360;2022-08-05T00:59:14;20.30;99.90
54614;DHT22;40514;52.758;6.360;2022-08-05T01:01:39;20.30;99.90
54614;DHT22;40514;52.758;6.360;2022-08-05T01:04:05;20.30;99.90
54614;DHT22;40514;52.758;6.360;2022-08-05T01:06:30;20.30;99.90
54614;DHT22;40514;52.758;6.360;2022-08-05T01:08:56;20.30;99.90
54614;DHT22;40514;52.758;6.360;2022-08-05T01:11:23;20.30;99.90
54614;DHT22;40514;52.758;6.360;2022-08-05T01:16:18;20.30;99.90
54614;DHT22;40514;52.758;6.360;2022-08-05T01:18:45;20.40;99.90
54614;DHT22;40514;52.758;6.360;2022-08-05T01:24:00;20.20;99.90
54614;DHT22;40514;52.758;6.360;2022-08-05T01:29:04;20.20;99.90
54614;DHT22;40514;52.758;6.360;2022-08-05T01:31:38;20.20;99.90
54614;DHT22;40514;52.758;6.360;2022-08-05T01:36:41;20.20;99.90
54614;DHT22;40514;52.758;6.360;2022-08-05T01:39:07;20.20;99.90
54614;DHT22;40514;52.758;6.360;2022-08-05T01:41:33;20.20;99.90
54614;DHT22;40514;52.758;6.360;2022-08-05T01:43:59;20.10;99.90
54614;DHT22;40514;52.758;6.360;2022-08-05T01:46:25;20.10;99.90
54614;DHT22;40514;52.758;6.360;2022-08-05T01:48:51;20.10;99.90
54614;DHT22;40514;52.758;6.360;2022-08-05T01:51:18;20.10;99.90
54614;DHT22;40514;52.758;6.360;2022-08-05T01:53:45;20.10;99.90
54614;DHT22;40514;52.758;6.360;2022-08-05T01:56:12;20.10;99.90
54614;DHT22;40514;52.758;6.360;2022-08-05T01:58:38;20.30;99.90
54614;DHT22;40514;52.758;6.360;2022-08-05T02:01:04;20.20;99.90
54614;DHT22;40514;52.758;6.360;2022-08-05T02:03:31;20.10;99.90
54614;DHT22;40514;52.758;6.360;2022-08-05T02:06:02;20.00;99.90
54614;DHT22;40514;52.758;6.360;2022-08-05T02:08:30;20.00;99.90
54614;DHT22;40514;52.758;6.360;2022-08-05T02:10:58;20.00;99.90
54614;DHT22;40514;52.758;6.360;2022-08-05T02:13:25;20.20;99.90
54614;DHT22;40514;52.758;6.360;2022-08-05T02:15:59;20.00;99.90
54614;DHT22;40514;52.758;6.360;2022-08-05T02:18:29;20.00;99.90
54614;DHT22;40514;52.758;6.360;2022-08-05T02:21:00;19.90;99.90
54614;DHT22;40514;52.758;6.360;2022-08-05T02:23:29;19.90;99.90
54614;DHT22;40514;52.758;6.360;2022-08-05T02:25:57;19.90;99.90
54614;DHT22;40514;52.758;6.360;2022-08-05T02:28:25;19.90;99.90
54614;DHT22;40514;52.758;6.360;2022-08-05T02:30:59;19.90;99.90
54614;DHT22;40514;52.758;6.360;2022-08-05T02:33:26;19.90;99.90
54614;DHT22;40514;52.758;6.360;2022-08-05T02:35:55;19.90;99.90
54614;DHT22;40514;52.758;6.360;2022-08-05T02:38:22;19.90;99.90
54614;DHT22;40514;52.758;6.360;2022-08-05T02:40:48;19.90;99.90
54614;DHT22;40514;52.758;6.360;2022-08-05T02:43:14;19.90;99.90
54614;DHT22;40514;52.758;6.360;2022-08-05T02:45:40;19.90;99.90
54614;DHT22;40514;52.758;6.360;2022-08-05T02:48:07;19.80;99.90
54614;DHT22;40514;52.758;6.360;2022-08-05T02:50:33;19.90;99.90
54614;DHT22;40514;52.758;6.360;2022-08-05T02:52:59;19.80;99.90
54614;DHT22;40514;52.758;6.360;2022-08-05T02:55:25;20.10;99.90
54614;DHT22;40514;52.758;6.360;2022-08-05T02:57:51;19.80;99.90
54614;DHT22;40514;52.758;6.360;2022-08-05T03:00:17;19.80;99.90
54614;DHT22;40514;52.758;6.360;2022-08-05T03:02:42;19.80;99.90
54614;DHT22;40514;52.758;6.360;2022-08-05T03:05:10;19.80;99.90
54614;DHT22;40514;52.758;6.360;2022-08-05T03:07:36;19.70;99.90
54614;DHT22;40514;52.758;6.360;2022-08-05T03:10:02;19.80;99.90
54614;DHT22;40514;52.758;6.360;2022-08-05T03:12:32;19.80;99.90
54614;DHT22;40514;52.758;6.360;2022-08-05T03:14:57;19.70;99.90
54614;DHT22;40514;52.758;6.360;2022-08-05T03:17:23;19.70;99.90
54614;DHT22;40514;52.758;6.360;2022-08-05T03:19:48;19.70;99.90
54614;DHT22;40514;52.758;6.360;2022-08-05T03:22:14;19.70;99.90
54614;DHT22;40514;52.758;6.360;2022-08-05T03:24:42;19.60;99.90
54614;DHT22;40514;52.758;6.360;2022-08-05T03:27:09;19.60;99.90
54614;DHT22;40514;52.758;6.360;2022-08-05T03:29:34;19.60;99.90
54614;DHT22;40514;52.758;6.360;2022-08-05T03:32:00;19.60;99.90
54614;DHT22;40514;52.758;6.360;2022-08-05T03:34:26;19.60;99.90
54614;DHT22;40514;52.758;6.360;2022-08-05T03:36:52;19.60;99.90
54614;DHT22;40514;52.758;6.360;2022-08-05T03:39:17;19.60;99.90
54614;DHT22;40514;52.758;6.360;2022-08-05T03:41:43;19.60;99.90
54614;DHT22;40514;52.758;6.360;2022-08-05T03:44:08;19.50;99.90
54614;DHT22;40514;52.758;6.360;2022-08-05T03:46:34;19.50;99.90
54614;DHT22;40514;52.758;6.360;2022-08-05T03:48:59;19.50;99.90
54614;DHT22;40514;52.758;6.360;2022-08-05T03:51:44;19.50;99.90
54614;DHT22;40514;52.758;6.360;2022-08-05T03:54:15;19.50;99.90
54614;DHT22;40514;52.758;6.360;2022-08-05T03:56:42;19.50;99.90
54614;DHT22;40514;52.758;6.360;2022-08-05T03:59:09;19.40;99.90
54614;DHT22;40514;52.758;6.360;2022-08-05T04:01:39;19.40;99.90
54614;DHT22;40514;52.758;6.360;2022-08-05T04:04:06;19.40;99.90
54614;DHT22;40514;52.758;6.360;2022-08-05T04:06:32;19.50;99.90
54614;DHT22;40514;52.758;6.360;2022-08-05T04:08:59;19.40;99.90
54614;DHT22;40514;52.758;6.360;2022-08-05T04:11:25;19.40;99.90
54614;DHT22;40514;52.758;6.360;2022-08-05T04:13:51;19.40;99.90
54614;DHT22;40514;52.758;6.360;2022-08-05T04:16:17;19.40;99.90
54614;DHT22;40514;52.758;6.360;2022-08-05T04:18:46;19.30;99.90
54614;DHT22;40514;52.758;6.360;2022-08-05T04:21:11;19.40;99.90
54614;DHT22;40514;52.758;6.360;2022-08-05T04:23:37;19.30;99.90
54614;DHT22;40514;52.758;6.360;2022-08-05T04:26:03;19.30;99.90
54614;DHT22;40514;52.758;6.360;2022-08-05T04:28:29;19.30;99.90
54614;DHT22;40514;52.758;6.360;2022-08-05T04:30:54;19.30;99.90
54614;DHT22;40514;52.758;6.360;2022-08-05T04:33:20;19.30;99.90
54614;DHT22;40514;52.758;6.360;2022-08-05T04:35:45;19.30;99.90
54614;DHT22;40514;52.758;6.360;2022-08-05T04:38:10;19.30;99.90
54614;DHT22;40514;52.758;6.360;2022-08-05T04:40:36;19.30;99.90
54614;DHT22;40514;52.758;6.360;2022-08-05T04:43:03;19.30;99.90
54614;DHT22;40514;52.758;6.360;2022-08-05T04:45:28;19.40;99.90
54614;DHT22;40514;52.758;6.360;2022-08-05T04:48:01;19.30;99.90
54614;DHT22;40514;52.758;6.360;2022-08-05T04:50:27;19.30;99.90
54614;DHT22;40514;52.758;6.360;2022-08-05T04:52:52;19.40;99.90
54614;DHT22;40514;52.758;6.360;2022-08-05T04:55:18;19.40;99.90
54614;DHT22;40514;52.758;6.360;2022-08-05T04:57:44;19.40;99.90
54614;DHT22;40514;52.758;6.360;2022-08-05T05:00:11;19.30;99.90
54614;DHT22;40514;52.758;6.360;2022-08-05T05:02:37;19.30;99.90
54614;DHT22;40514;52.758;6.360;2022-08-05T05:05:03;19.30;99.90
54614;DHT22;40514;52.758;6.360;2022-08-05T05:07:29;19.30;99.90
54614;DHT22;40514;52.758;6.360;2022-08-05T05:09:55;19.30;99.90
54614;DHT22;40514;52.758;6.360;2022-08-05T05:12:20;19.30;99.90
54614;DHT22;40514;52.758;6.360;2022-08-05T05:14:46;19.30;99.90
54614;DHT22;40514;52.758;6.360;2022-08-05T05:17:11;19.30;99.90
54614;DHT22;40514;52.758;6.360;2022-08-05T05:19:37;19.30;99.90
54614;DHT22;40514;52.758;6.360;2022-08-05T05:22:03;19.30;99.90
54614;DHT22;40514;52.758;6.360;2022-08-05T05:24:29;19.30;99.90
54614;DHT22;40514;52.758;6.360;2022-08-05T05:26:54;19.30;99.90
54614;DHT22;40514;52.758;6.360;2022-08-05T05:29:20;19.30;99.90
54614;DHT22;40514;52.758;6.360;2022-08-05T05:31:45;19.30;99.90
54614;DHT22;40514;52.758;6.360;2022-08-05T05:34:11;19.30;99.90
54614;DHT22;40514;52.758;6.360;2022-08-05T05:36:36;19.30;99.90
54614;DHT22;40514;52.758;6.360;2022-08-05T05:39:02;19.20;99.90
54614;DHT22;40514;52.758;6.360;2022-08-05T05:41:27;19.20;99.90
54614;DHT22;40514;52.758;6.360;2022-08-05T05:43:52;19.30;99.90
54614;DHT22;40514;52.758;6.360;2022-08-05T05:46:18;19.20;99.90
54614;DHT22;40514;52.758;6.360;2022-08-05T05:48:44;19.30;99.90
54614;DHT22;40514;52.758;6.360;2022-08-05T05:51:10;19.30;99.90
54614;DHT22;40514;52.758;6.360;2022-08-05T05:53:35;19.20;99.90
54614;DHT22;40514;52.758;6.360;2022-08-05T05:56:01;19.20;99.90
54614;DHT22;40514;52.758;6.360;2022-08-05T05:58:27;19.20;99.90
54614;DHT22;40514;52.758;6.360;2022-08-05T06:00:53;19.30;99.90
54614;DHT22;40514;52.758;6.360;2022-08-05T06:03:18;19.30;99.90
54614;DHT22;40514;52.758;6.360;2022-08-05T06:05:43;19.40;99.90
54614;DHT22;40514;52.758;6.360;2022-08-05T06:08:09;19.50;99.90
54614;DHT22;40514;52.758;6.360;2022-08-05T06:10:35;19.60;99.90
54614;DHT22;40514;52.758;6.360;2022-08-05T06:13:01;19.70;99.90
54614;DHT22;40514;52.758;6.360;2022-08-05T06:15:26;19.70;99.90
54614;DHT22;40514;52.758;6.360;2022-08-05T06:17:52;19.80;99.90
54614;DHT22;40514;52.758;6.360;2022-08-05T06:20:17;19.80;99.90
54614;DHT22;40514;52.758;6.360;2022-08-05T06:22:43;19.80;99.90
54614;DHT22;40514;52.758;6.360;2022-08-05T06:25:08;19.80;99.90
54614;DHT22;40514;52.758;6.360;2022-08-05T06:27:34;19.90;99.90
54614;DHT22;40514;52.758;6.360;2022-08-05T06:30:00;19.90;99.90
54614;DHT22;40514;52.758;6.360;2022-08-05T06:32:25;19.90;99.90
54614;DHT22;40514;52.758;6.360;2022-08-05T06:34:51;20.00;99.90
54614;DHT22;40514;52.758;6.360;2022-08-05T06:37:17;20.20;99.90
54614;DHT22;40514;52.758;6.360;2022-08-05T06:39:42;20.30;99.90
54614;DHT22;40514;52.758;6.360;2022-08-05T06:42:08;20.30;99.90
54614;DHT22;40514;52.758;6.360;2022-08-05T06:44:33;20.40;99.90
54614;DHT22;40514;52.758;6.360;2022-08-05T06:46:59;20.50;99.90
54614;DHT22;40514;52.758;6.360;2022-08-05T06:49:24;20.50;99.90
54614;DHT22;40514;52.758;6.360;2022-08-05T06:51:50;20.50;99.90
54614;DHT22;40514;52.758;6.360;2022-08-05T06:54:16;20.70;99.90
54614;DHT22;40514;52.758;6.360;2022-08-05T06:56:42;20.70;99.90
54614;DHT22;40514;52.758;6.360;2022-08-05T06:59:07;20.80;99.90
54614;DHT22;40514;52.758;6.360;2022-08-05T07:01:33;20.90;99.90
54614;DHT22;40514;52.758;6.360;2022-08-05T07:03:59;21.00;99.90
54614;DHT22;40514;52.758;6.360;2022-08-05T07:06:25;21.10;99.90
54614;DHT22;40514;52.758;6.360;2022-08-05T07:08:51;21.30;99.90
54614;DHT22;40514;52.758;6.360;2022-08-05T07:11:16;21.30;99.90
54614;DHT22;40514;52.758;6.360;2022-08-05T07:13:42;21.40;99.90
54614;DHT22;40514;52.758;6.360;2022-08-05T07:16:27;21.50;99.90
54614;DHT22;40514;52.758;6.360;2022-08-05T07:19:11;21.70;99.90
54614;DHT22;40514;52.758;6.360;2022-08-05T07:21:36;21.70;99.90
54614;DHT22;40514;52.758;6.360;2022-08-05T07:24:02;21.70;99.90
54614;DHT22;40514;52.758;6.360;2022-08-05T07:26:28;21.70;99.90
54614;DHT22;40514;52.758;6.360;2022-08-05T07:28:53;21.70;99.90
54614;DHT22;40514;52.758;6.360;2022-08-05T07:31:19;21.70;99.90
54614;DHT22;40514;52.758;6.360;2022-08-05T07:33:45;21.70;99.90
54614;DHT22;40514;52.758;6.360;2022-08-05T07:36:10;21.60;99.90
54614;DHT22;40514;52.758;6.360;2022-08-05T07:38:36;21.70;99.90
54614;DHT22;40514;52.758;6.360;2022-08-05T07:41:05;21.60;99.90
54614;DHT22;40514;52.758;6.360;2022-08-05T07:43:31;21.60;99.90
54614;DHT22;40514;52.758;6.360;2022-08-05T07:45:57;21.70;99.90
54614;DHT22;40514;52.758;6.360;2022-08-05T07:48:23;21.70;99.90
54614;DHT22;40514;52.758;6.360;2022-08-05T07:50:48;21.70;99.90
54614;DHT22;40514;52.758;6.360;2022-08-05T07:53:14;21.70;99.90
54614;DHT22;40514;52.758;6.360;2022-08-05T07:55:40;21.70;99.90
54614;DHT22;40514;52.758;6.360;2022-08-05T07:58:05;21.70;99.90
54614;DHT22;40514;52.758;6.360;2022-08-05T08:00:31;21.70;99.90
54614;DHT22;40514;52.758;6.360;2022-08-05T08:02:56;21.70;99.90
54614;DHT22;40514;52.758;6.360;2022-08-05T08:05:22;21.80;99.90
54614;DHT22;40514;52.758;6.360;2022-08-05T08:07:47;21.80;99.90
54614;DHT22;40514;52.758;6.360;2022-08-05T08:10:13;21.80;99.90
54614;DHT22;40514;52.758;6.360;2022-08-05T08:12:38;21.80;99.90
54614;DHT22;40514;52.758;6.360;2022-08-05T08:15:04;21.90;99.90
54614;DHT22;40514;52.758;6.360;2022-08-05T08:17:31;22.00;99.90
54614;DHT22;40514;52.758;6.360;2022-08-05T08:19:57;22.10;99.90
54614;DHT22;40514;52.758;6.360;2022-08-05T08:22:24;22.30;99.90
54614;DHT22;40514;52.758;6.360;2022-08-05T08:24:50;22.50;99.90
54614;DHT22;40514;52.758;6.360;2022-08-05T08:27:15;22.60;99.90
54614;DHT22;40514;52.758;6.360;2022-08-05T08:29:40;22.70;99.90
54614;DHT22;40514;52.758;6.360;2022-08-05T08:32:06;22.90;99.90
54614;DHT22;40514;52.758;6.360;2022-08-05T08:34:31;22.90;99.90
54614;DHT22;40514;52.758;6.360;2022-08-05T08:36:57;23.00;99.90
54614;DHT22;40514;52.758;6.360;2022-08-05T08:39:22;23.10;99.90
54614;DHT22;40514;52.758;6.360;2022-08-05T08:41:49;23.10;99.90
54614;DHT22;40514;52.758;6.360;2022-08-05T08:44:18;23.20;99.90
54614;DHT22;40514;52.758;6.360;2022-08-05T08:46:44;23.40;99.40
54614;DHT22;40514;52.758;6.360;2022-08-05T08:49:12;23.60;99.60
54614;DHT22;40514;52.758;6.360;2022-08-05T08:51:38;23.90;98.80
54614;DHT22;40514;52.758;6.360;2022-08-05T08:54:05;24.20;98.70
54614;DHT22;40514;52.758;6.360;2022-08-05T08:56:31;24.30;98.40
54614;DHT22;40514;52.758;6.360;2022-08-05T08:58:56;24.30;98.20
54614;DHT22;40514;52.758;6.360;2022-08-05T09:01:24;24.20;97.70
54614;DHT22;40514;52.758;6.360;2022-08-05T09:03:51;24.30;96.40
54614;DHT22;40514;52.758;6.360;2022-08-05T09:06:16;24.30;96.40
54614;DHT22;40514;52.758;6.360;2022-08-05T09:08:44;24.40;95.10
54614;DHT22;40514;52.758;6.360;2022-08-05T09:11:09;24.70;94.50
54614;DHT22;40514;52.758;6.360;2022-08-05T09:13:36;24.80;93.50
54614;DHT22;40514;52.758;6.360;2022-08-05T09:16:02;24.80;93.70
54614;DHT22;40514;52.758;6.360;2022-08-05T09:18:28;24.70;92.70
54614;DHT22;40514;52.758;6.360;2022-08-05T09:20:53;24.60;93.50
54614;DHT22;40514;52.758;6.360;2022-08-05T09:23:19;24.70;92.60
54614;DHT22;40514;52.758;6.360;2022-08-05T09:25:46;25.00;91.00
54614;DHT22;40514;52.758;6.360;2022-08-05T09:30:41;25.90;88.70
54614;DHT22;40514;52.758;6.360;2022-08-05T09:33:06;26.40;86.80
54614;DHT22;40514;52.758;6.360;2022-08-05T09:35:32;26.80;86.60
54614;DHT22;40514;52.758;6.360;2022-08-05T09:37:57;27.30;79.20
54614;DHT22;40514;52.758;6.360;2022-08-05T09:42:55;28.30;77.00
54614;DHT22;40514;52.758;6.360;2022-08-05T09:45:20;28.70;71.90
54614;DHT22;40514;52.758;6.360;2022-08-05T09:47:58;28.80;72.70
54614;DHT22;40514;52.758;6.360;2022-08-05T09:50:33;28.80;72.40
54614;DHT22;40514;52.758;6.360;2022-08-05T09:52:59;28.60;63.30
54614;DHT22;40514;52.758;6.360;2022-08-05T09:55:24;28.80;68.80
54614;DHT22;40514;52.758;6.360;2022-08-05T09:57:50;29.00;63.80
54614;DHT22;40514;52.758;6.360;2022-08-05T10:00:17;29.00;61.70
54614;DHT22;40514;52.758;6.360;2022-08-05T10:02:43;28.90;61.40
54614;DHT22;40514;52.758;6.360;2022-08-05T10:05:13;29.20;63.80
54614;DHT22;40514;52.758;6.360;2022-08-05T10:07:50;29.60;63.70
54614;DHT22;40514;52.758;6.360;2022-08-05T10:10:17;30.00;61.40
54614;DHT22;40514;52.758;6.360;2022-08-05T10:12:43;30.30;58.80
54614;DHT22;40514;52.758;6.360;2022-08-05T10:15:15;30.50;61.60
54614;DHT22;40514;52.758;6.360;2022-08-05T10:17:41;30.60;58.90
54614;DHT22;40514;52.758;6.360;2022-08-05T10:20:07;30.70;58.30
54614;DHT22;40514;52.758;6.360;2022-08-05T10:22:37;30.90;57.30
54614;DHT22;40514;52.758;6.360;2022-08-05T10:25:03;31.00;58.90
54614;DHT22;40514;52.758;6.360;2022-08-05T10:27:29;31.20;55.00
54614;DHT22;40514;52.758;6.360;2022-08-05T10:29:55;31.40;56.10
54614;DHT22;40514;52.758;6.360;2022-08-05T10:32:21;31.30;56.30
54614;DHT22;40514;52.758;6.360;2022-08-05T10:34:47;31.40;54.70
54614;DHT22;40514;52.758;6.360;2022-08-05T10:37:12;31.50;53.30
54614;DHT22;40514;52.758;6.360;2022-08-05T10:39:38;31.60;49.80
54614;DHT22;40514;52.758;6.360;2022-08-05T10:42:11;31.50;52.50
54614;DHT22;40514;52.758;6.360;2022-08-05T10:44:37;31.40;47.40
54614;DHT22;40514;52.758;6.360;2022-08-05T10:47:11;31.60;49.90
54614;DHT22;40514;52.758;6.360;2022-08-05T10:49:58;32.00;50.20
54614;DHT22;40514;52.758;6.360;2022-08-05T10:55:05;32.80;50.60
54614;DHT22;40514;52.758;6.360;2022-08-05T10:57:31;33.00;49.50
54614;DHT22;40514;52.758;6.360;2022-08-05T11:00:13;33.10;50.80
54614;DHT22;40514;52.758;6.360;2022-08-05T11:05:23;33.40;47.40
54614;DHT22;40514;52.758;6.360;2022-08-05T11:07:59;33.50;47.70
54614;DHT22;40514;52.758;6.360;2022-08-05T11:10:27;33.50;45.90
54614;DHT22;40514;52.758;6.360;2022-08-05T11:12:52;33.30;44.00
54614;DHT22;40514;52.758;6.360;2022-08-05T11:15:19;33.20;45.40
54614;DHT22;40514;52.758;6.360;2022-08-05T11:17:49;33.10;47.70
54614;DHT22;40514;52.758;6.360;2022-08-05T11:22:59;33.00;46.10
54614;DHT22;40514;52.758;6.360;2022-08-05T11:28:42;33.00;47.00
54614;DHT22;40514;52.758;6.360;2022-08-05T11:33:38;31.90;44.60
54614;DHT22;40514;52.758;6.360;2022-08-05T11:36:05;31.20;44.40
54614;DHT22;40514;52.758;6.360;2022-08-05T11:38:49;30.70;46.10
54614;DHT22;40514;52.758;6.360;2022-08-05T11:41:17;30.40;45.30
54614;DHT22;40514;52.758;6.360;2022-08-05T11:43:55;30.10;45.50
54614;DHT22;40514;52.758;6.360;2022-08-05T11:46:24;29.90;47.70
54614;DHT22;40514;52.758;6.360;2022-08-05T11:48:49;29.50;47.70
54614;DHT22;40514;52.758;6.360;2022-08-05T11:51:15;29.20;48.90
54614;DHT22;40514;52.758;6.360;2022-08-05T11:53:40;29.10;46.90
54614;DHT22;40514;52.758;6.360;2022-08-05T11:56:06;29.00;50.00
54614;DHT22;40514;52.758;6.360;2022-08-05T11:58:35;29.30;50.30
54614;DHT22;40514;52.758;6.360;2022-08-05T12:01:09;29.70;50.00
54614;DHT22;40514;52.758;6.360;2022-08-05T12:03:46;30.00;49.40
54614;DHT22;40514;52.758;6.360;2022-08-05T12:06:12;30.10;48.10
54614;DHT22;40514;52.758;6.360;2022-08-05T12:08:39;30.20;47.70
54614;DHT22;40514;52.758;6.360;2022-08-05T12:11:04;30.20;49.10
54614;DHT22;40514;52.758;6.360;2022-08-05T12:13:32;30.30;49.70
54614;DHT22;40514;52.758;6.360;2022-08-05T12:15:58;30.20;49.50
54614;DHT22;40514;52.758;6.360;2022-08-05T12:18:27;30.00;48.30
54614;DHT22;40514;52.758;6.360;2022-08-05T12:20:54;29.80;49.00
54614;DHT22;40514;52.758;6.360;2022-08-05T12:23:19;29.60;50.40
54614;DHT22;40514;52.758;6.360;2022-08-05T12:25:51;29.40;49.40
54614;DHT22;40514;52.758;6.360;2022-08-05T12:28:31;29.00;49.90
54614;DHT22;40514;52.758;6.360;2022-08-05T12:30:56;28.80;52.10
54614;DHT22;40514;52.758;6.360;2022-08-05T12:33:22;28.40;51.90
54614;DHT22;40514;52.758;6.360;2022-08-05T12:35:48;28.40;51.10
54614;DHT22;40514;52.758;6.360;2022-08-05T12:38:13;28.20;51.40
54614;DHT22;40514;52.758;6.360;2022-08-05T12:40:39;28.20;51.70
54614;DHT22;40514;52.758;6.360;2022-08-05T12:43:07;28.00;51.80
54614;DHT22;40514;52.758;6.360;2022-08-05T12:45:33;28.00;51.50
54614;DHT22;40514;52.758;6.360;2022-08-05T12:47:58;28.00;52.20
54614;DHT22;40514;52.758;6.360;2022-08-05T12:50:24;27.90;52.00
54614;DHT22;40514;52.758;6.360;2022-08-05T12:52:56;28.10;52.00
54614;DHT22;40514;52.758;6.360;2022-08-05T12:55:27;28.10;52.90
54614;DHT22;40514;52.758;6.360;2022-08-05T12:57:54;28.10;53.20
54614;DHT22;40514;52.758;6.360;2022-08-05T13:00:21;27.90;51.20
54614;DHT22;40514;52.758;6.360;2022-08-05T13:02:46;27.80;52.90
54614;DHT22;40514;52.758;6.360;2022-08-05T13:05:12;27.80;53.40
54614;DHT22;40514;52.758;6.360;2022-08-05T13:07:41;28.00;54.00
54614;DHT22;40514;52.758;6.360;2022-08-05T13:10:11;27.90;53.70
54614;DHT22;40514;52.758;6.360;2022-08-05T13:12:41;28.00;53.70
54614;DHT22;40514;52.758;6.360;2022-08-05T13:15:08;27.80;53.10
54614;DHT22;40514;52.758;6.360;2022-08-05T13:17:34;27.80;52.40
54614;DHT22;40514;52.758;6.360;2022-08-05T13:22:25;27.20;51.40
54614;DHT22;40514;52.758;6.360;2022-08-05T13:24:51;27.40;51.50
54614;DHT22;40514;52.758;6.360;2022-08-05T13:27:23;27.30;52.10
54614;DHT22;40514;52.758;6.360;2022-08-05T13:29:48;27.20;53.30
54614;DHT22;40514;52.758;6.360;2022-08-05T13:32:14;27.00;53.70
54614;DHT22;40514;52.758;6.360;2022-08-05T13:34:39;27.00;53.70
54614;DHT22;40514;52.758;6.360;2022-08-05T13:37:05;26.80;53.60
54614;DHT22;40514;52.758;6.360;2022-08-05T13:39:30;26.70;53.50
54614;DHT22;40514;52.758;6.360;2022-08-05T13:41:56;26.60;54.00
54614;DHT22;40514;52.758;6.360;2022-08-05T13:44:21;26.50;54.30
54614;DHT22;40514;52.758;6.360;2022-08-05T13:46:47;26.40;54.40
54614;DHT22;40514;52.758;6.360;2022-08-05T13:49:13;26.20;54.20
54614;DHT22;40514;52.758;6.360;2022-08-05T13:51:39;26.10;53.60
54614;DHT22;40514;52.758;6.360;2022-08-05T13:54:07;26.00;53.50
54614;DHT22;40514;52.758;6.360;2022-08-05T13:56:32;25.90;53.30
54614;DHT22;40514;52.758;6.360;2022-08-05T13:58:58;25.90;55.00
54614;DHT22;40514;52.758;6.360;2022-08-05T14:01:24;25.90;54.00
54614;DHT22;40514;52.758;6.360;2022-08-05T14:03:49;25.80;53.60
54614;DHT22;40514;52.758;6.360;2022-08-05T14:06:34;25.90;53.80
54614;DHT22;40514;52.758;6.360;2022-08-05T14:09:00;25.90;54.60
54614;DHT22;40514;52.758;6.360;2022-08-05T14:11:25;26.00;54.90
54614;DHT22;40514;52.758;6.360;2022-08-05T14:13:52;26.10;55.10
54614;DHT22;40514;52.758;6.360;2022-08-05T14:16:17;26.10;54.90
54614;DHT22;40514;52.758;6.360;2022-08-05T14:18:43;26.00;54.30
54614;DHT22;40514;52.758;6.360;2022-08-05T14:21:09;26.00;54.50
54614;DHT22;40514;52.758;6.360;2022-08-05T14:23:34;25.90;54.60
54614;DHT22;40514;52.758;6.360;2022-08-05T14:26:00;25.70;54.20
54614;DHT22;40514;52.758;6.360;2022-08-05T14:28:26;25.70;54.70
54614;DHT22;40514;52.758;6.360;2022-08-05T14:30:51;25.70;55.40
54614;DHT22;40514;52.758;6.360;2022-08-05T14:33:17;25.70;55.00
54614;DHT22;40514;52.758;6.360;2022-08-05T14:35:42;25.70;55.30
54614;DHT22;40514;52.758;6.360;2022-08-05T14:38:08;25.80;55.50
54614;DHT22;40514;52.758;6.360;2022-08-05T14:40:34;25.70;55.80
54614;DHT22;40514;52.758;6.360;2022-08-05T14:42:59;25.60;56.30
54614;DHT22;40514;52.758;6.360;2022-08-05T14:45:26;25.60;56.20
54614;DHT22;40514;52.758;6.360;2022-08-05T14:47:51;25.50;56.30
54614;DHT22;40514;52.758;6.360;2022-08-05T14:50:17;25.50;56.50
54614;DHT22;40514;52.758;6.360;2022-08-05T14:52:42;25.50;56.30
54614;DHT22;40514;52.758;6.360;2022-08-05T14:55:08;25.30;56.10
54614;DHT22;40514;52.758;6.360;2022-08-05T14:57:33;25.30;56.70
54614;DHT22;40514;52.758;6.360;2022-08-05T14:59:59;25.10;54.50
54614;DHT22;40514;52.758;6.360;2022-08-05T15:02:25;25.00;54.50
54614;DHT22;40514;52.758;6.360;2022-08-05T15:04:50;24.80;54.60
54614;DHT22;40514;52.758;6.360;2022-08-05T15:07:15;24.80;54.70
54614;DHT22;40514;52.758;6.360;2022-08-05T15:09:41;24.80;54.20
54614;DHT22;40514;52.758;6.360;2022-08-05T15:12:07;25.00;55.20
54614;DHT22;40514;52.758;6.360;2022-08-05T15:14:32;24.70;55.70
54614;DHT22;40514;52.758;6.360;2022-08-05T15:16:58;24.70;56.50
54614;DHT22;40514;52.758;6.360;2022-08-05T15:19:23;24.70;56.80
54614;DHT22;40514;52.758;6.360;2022-08-05T15:21:49;24.70;55.80
54614;DHT22;40514;52.758;6.360;2022-08-05T15:24:14;24.70;55.50
54614;DHT22;40514;52.758;6.360;2022-08-05T15:26:40;24.60;56.10
54614;DHT22;40514;52.758;6.360;2022-08-05T15:29:05;24.50;55.30
54614;DHT22;40514;52.758;6.360;2022-08-05T15:31:30;24.50;56.20
54614;DHT22;40514;52.758;6.360;2022-08-05T15:33:56;24.50;56.50
54614;DHT22;40514;52.758;6.360;2022-08-05T15:36:22;24.50;55.20
54614;DHT22;40514;52.758;6.360;2022-08-05T15:38:47;24.40;53.50
54614;DHT22;40514;52.758;6.360;2022-08-05T15:41:13;24.20;54.80
54614;DHT22;40514;52.758;6.360;2022-08-05T15:43:38;24.10;54.90
54614;DHT22;40514;52.758;6.360;2022-08-05T15:46:04;24.10;56.20
54614;DHT22;40514;52.758;6.360;2022-08-05T15:48:29;24.00;56.50
54614;DHT22;40514;52.758;6.360;2022-08-05T15:50:55;24.00;56.40
54614;DHT22;40514;52.758;6.360;2022-08-05T15:53:21;24.00;56.20
54614;DHT22;40514;52.758;6.360;2022-08-05T15:55:46;23.90;56.20
54614;DHT22;40514;52.758;6.360;2022-08-05T15:58:12;23.90;56.50